Time;durP1;ratioP1;P1;durP2;ratioP2;P2;SDS_P1;SDS_P2;PMS_P1;PMS_P2;Temp;Humidity;BMP_temperature;BMP_pressure;BME280_temperature;BME280_humidity;BME280_pressure;Samples;Min_cycle;Max_cycle;Signal;HPM_P1;HPM_P2
2023/06/17 00:02:05;;;;;;;5.97;3.08;;;;;;;15.40;100.00;100730.25;6195256;23;20012;-83
2023/06/17 00:04:31;;;;;;;8.15;3.25;;;;;;;15.38;100.00;100730.44;6195391;23;20035;-83
2023/06/17 00:06:56;;;;;;;7.05;2.90;;;;;;;15.43;100.00;100734.41;6195506;23;20008;-82
2023/06/17 00:09:22;;;;;;;5.32;2.75;;;;;;;15.47;100.00;100736.50;6195592;23;20318;-83
2023/06/17 00:11:48;;;;;;;6.35;2.70;;;;;;;15.53;100.00;100729.41;6195500;23;20066;-82
2023/06/17 00:14:16;;;;;;;6.55;2.95;;;;;;;15.58;100.00;100729.59;6245721;23;20031;-83
2023/06/17 00:16:45;;;;;;;6.20;3.05;;;;;;;15.62;100.00;100730.88;6245780;23;20011;-83
2023/06/17 00:19:15;;;;;;;8.85;3.20;;;;;;;15.69;100.00;100737.16;6195930;23;20008;-83
2023/06/17 00:21:50;;;;;;;5.95;3.00;;;;;;;15.78;100.00;100740.47;6196099;23;20011;-83
2023/06/17 00:24:16;;;;;;;5.18;2.45;;;;;;;15.79;100.00;100734.81;6220957;23;20447;-84
2023/06/17 00:26:42;;;;;;;6.38;2.97;;;;;;;15.87;100.00;100741.91;6245626;23;20003;-82
2023/06/17 00:29:07;;;;;;;6.75;2.80;;;;;;;15.87;100.00;100722.94;6220404;23;20004;-83
2023/06/17 00:31:33;;;;;;;5.85;3.05;;;;;;;15.85;100.00;100716.91;6195223;23;20189;-82
2023/06/17 00:33:59;;;;;;;5.47;2.97;;;;;;;15.85;100.00;100724.19;6195414;23;20115;-80
2023/06/17 00:36:25;;;;;;;5.45;2.70;;;;;;;15.82;100.00;100718.16;6220287;23;20365;-82
2023/06/17 00:38:51;;;;;;;5.20;2.65;;;;;;;15.85;100.00;100726.91;6195169;23;20070;-82
2023/06/17 00:41:17;;;;;;;5.75;3.05;;;;;;;15.76;100.00;100700.00;6195177;23;20079;-83
2023/06/17 00:43:43;;;;;;;4.35;2.58;;;;;;;15.85;100.00;100714.19;6194727;23;20486;-82
2023/06/17 00:46:10;;;;;;;6.63;2.92;;;;;;;15.90;100.00;100724.38;6220342;23;20000;-82
2023/06/17 00:48:35;;;;;;;5.90;2.78;;;;;;;15.90;100.00;100722.50;6219910;23;20007;-82
2023/06/17 00:51:02;;;;;;;4.15;2.33;;;;;;;15.92;100.00;100722.28;6195056;23;20012;-82
2023/06/17 00:53:29;;;;;;;4.80;2.45;;;;;;;15.90;100.00;100716.25;6195364;23;20023;-82
2023/06/17 00:55:56;;;;;;;5.38;2.30;;;;;;;15.86;100.00;100709.59;6245345;23;20452;-81
2023/06/17 00:58:21;;;;;;;6.03;2.55;;;;;;;15.77;100.00;100706.25;6195142;23;20011;-81
2023/06/17 01:00:47;;;;;;;3.95;2.47;;;;;;;15.76;100.00;100705.44;6220000;23;20008;-82
2023/06/17 01:03:17;;;;;;;4.88;2.45;;;;;;;15.75;100.00;100706.50;6244907;23;20028;-81
2023/06/17 01:05:47;;;;;;;4.25;2.38;;;;;;;15.81;100.00;100705.63;6245360;23;20032;-82
2023/06/17 01:08:26;;;;;;;4.57;2.25;;;;;;;15.88;100.00;100705.63;6245269;23;20011;-81
2023/06/17 01:10:51;;;;;;;4.00;2.63;;;;;;;15.91;100.00;100707.09;6219894;23;20004;-81
2023/06/17 01:13:17;;;;;;;6.00;2.63;;;;;;;15.95;100.00;100714.56;6219790;23;20014;-82
2023/06/17 01:15:43;;;;;;;5.97;3.00;;;;;;;15.99;100.00;100713.09;6194743;23;20004;-81
2023/06/17 01:18:09;;;;;;;4.18;2.80;;;;;;;16.04;100.00;100707.88;6219944;23;20012;-81
2023/06/17 01:20:35;;;;;;;4.05;2.25;;;;;;;16.05;100.00;100708.72;6194741;23;20010;-83
2023/06/17 01:23:03;;;;;;;4.75;2.53;;;;;;;16.02;100.00;100699.13;6194786;23;20482;-83
2023/06/17 01:25:30;;;;;;;5.22;2.70;;;;;;;16.05;100.00;100697.84;6245348;23;20000;-82
2023/06/17 01:27:59;;;;;;;4.88;2.75;;;;;;;16.05;100.00;100693.25;6245174;23;20011;-82
2023/06/17 01:30:28;;;;;;;5.13;2.58;;;;;;;16.01;100.00;100693.94;6220275;23;20448;-83
2023/06/17 01:32:56;;;;;;;5.25;2.78;;;;;;;15.93;100.00;100694.13;6244796;23;20012;-82
2023/06/17 01:35:23;;;;;;;5.18;3.00;;;;;;;15.72;100.00;100682.50;6245118;23;20399;-82
2023/06/17 01:38:02;;;;;;;5.22;2.63;;;;;;;15.59;100.00;100677.09;6219519;23;20483;-82
2023/06/17 01:40:28;;;;;;;6.75;2.83;;;;;;;15.46;100.00;100679.81;6244731;23;20026;-83
2023/06/17 01:42:53;;;;;;;7.32;3.08;;;;;;;15.35;100.00;100665.84;6194694;23;20008;-82
2023/06/17 01:45:19;;;;;;;6.20;3.15;;;;;;;15.29;100.00;100672.09;6219513;23;20310;-82
2023/06/17 01:47:45;;;;;;;5.18;2.95;;;;;;;15.19;100.00;100669.00;6194763;23;20091;-81
2023/06/17 01:50:11;;;;;;;5.18;2.60;;;;;;;15.04;100.00;100673.78;6194667;23;20046;-82
2023/06/17 01:52:37;;;;;;;5.25;3.35;;;;;;;14.96;100.00;100669.38;6194577;23;20026;-80
2023/06/17 01:55:03;;;;;;;5.70;2.70;;;;;;;14.86;100.00;100660.84;6195119;23;20003;-81
2023/06/17 01:57:30;;;;;;;5.80;2.42;;;;;;;14.70;100.00;100653.94;6246745;23;20433;-81
2023/06/17 01:59:56;;;;;;;5.50;2.88;;;;;;;14.64;100.00;100652.06;6196906;23;20032;-81
2023/06/17 02:02:22;;;;;;;4.20;2.28;;;;;;;14.60;100.00;100656.19;6196009;23;20314;-81
2023/06/17 02:04:48;;;;;;;6.43;2.88;;;;;;;14.62;100.00;100656.84;6247102;23;20053;-81
2023/06/17 02:07:17;;;;;;;4.68;3.13;;;;;;;14.66;100.00;100649.97;6246873;23;20061;-82
2023/06/17 02:09:44;;;;;;;7.32;3.20;;;;;;;14.81;100.00;100652.50;6246950;23;20059;-81
2023/06/17 02:12:11;;;;;;;8.93;3.50;;;;;;;14.87;100.00;100652.50;6221663;23;20027;-81
2023/06/17 02:14:37;;;;;;;7.00;3.88;;;;;;;14.91;100.00;100651.03;6246668;23;20062;-82
2023/06/17 02:17:03;;;;;;;9.50;4.13;;;;;;;14.97;100.00;100649.38;6221552;23;20004;-82
2023/06/17 02:19:31;;;;;;;7.38;3.53;;;;;;;14.98;100.00;100651.06;6221316;23;20008;-81
2023/06/17 02:21:58;;;;;;;6.93;3.58;;;;;;;14.94;100.00;100637.09;6246669;23;20032;-81
2023/06/17 02:24:24;;;;;;;7.97;3.70;;;;;;;14.87;100.00;100638.97;6246875;23;20441;-81
2023/06/17 02:26:50;;;;;;;7.88;4.03;;;;;;;14.68;100.00;100620.81;6196270;23;20004;-81
2023/06/17 02:29:16;;;;;;;7.25;3.60;;;;;;;14.59;100.00;100630.19;6196365;23;20035;-81
2023/06/17 02:31:42;;;;;;;6.85;3.50;;;;;;;14.43;100.00;100632.19;6221315;23;20000;-81
2023/06/17 02:34:09;;;;;;;7.60;3.25;;;;;;;14.27;100.00;100629.88;6196569;23;20033;-81
2023/06/17 02:36:37;;;;;;;7.32;3.85;;;;;;;14.14;100.00;100627.94;6221483;23;20436;-81
2023/06/17 02:39:03;;;;;;;7.60;4.05;;;;;;;14.17;100.00;100630.25;6196816;23;20078;-80
2023/06/17 02:41:28;;;;;;;7.47;3.90;;;;;;;14.15;100.00;100631.47;6247848;22;20433;-82
2023/06/17 02:43:54;;;;;;;8.30;4.28;;;;;;;14.16;100.00;100638.56;6196202;23;20011;-81
2023/06/17 02:46:20;;;;;;;6.63;3.53;;;;;;;14.20;100.00;100634.41;6196249;23;20387;-82
2023/06/17 02:48:46;;;;;;;9.88;4.10;;;;;;;14.20;100.00;100637.13;6221432;23;20095;-84
2023/06/17 02:51:11;;;;;;;8.13;4.60;;;;;;;14.19;100.00;100639.00;6196220;23;20082;-81
2023/06/17 02:53:37;;;;;;;11.02;4.35;;;;;;;14.27;100.00;100646.09;6195829;23;20007;-81
2023/06/17 02:56:03;;;;;;;10.40;4.72;;;;;;;14.27;100.00;100641.53;6196137;23;20000;-81
2023/06/17 02:58:29;;;;;;;11.10;4.70;;;;;;;14.25;100.00;100653.56;6195767;23;20452;-81
2023/06/17 03:00:54;;;;;;;7.65;3.72;;;;;;;14.17;100.00;100645.66;6220853;23;20020;-81
2023/06/17 03:03:33;;;;;;;8.57;4.30;;;;;;;13.99;100.00;100622.69;6196021;23;20006;-81
2023/06/17 03:06:03;;;;;;;10.15;4.10;;;;;;;13.96;100.00;100630.38;6198386;23;20080;-81
2023/06/17 03:08:33;;;;;;;7.15;4.13;;;;;;;13.83;100.00;100628.44;6221172;23;20004;-81
2023/06/17 03:11:02;;;;;;;10.25;4.72;;;;;;;13.73;100.00;100627.97;6246351;23;20004;-82
2023/06/17 03:13:31;;;;;;;9.02;5.07;;;;;;;13.55;100.00;100623.09;6195971;23;20026;-81
2023/06/17 03:15:58;;;;;;;8.65;4.53;;;;;;;13.55;100.00;100639.31;6196384;23;20044;-80
2023/06/17 03:18:25;;;;;;;9.27;4.20;;;;;;;13.49;100.00;100640.91;6221264;23;20016;-80
2023/06/17 03:20:51;;;;;;;8.85;4.30;;;;;;;13.58;100.00;100639.75;6221011;23;20135;-81
2023/06/17 03:23:17;;;;;;;9.75;4.75;;;;;;;13.66;100.00;100637.91;6246113;23;20457;-81
2023/06/17 03:25:44;;;;;;;8.07;4.55;;;;;;;13.64;100.00;100630.00;6247369;22;20000;-81
2023/06/17 03:28:10;;;;;;;10.35;4.53;;;;;;;13.64;100.00;100628.13;6221164;23;20000;-82
2023/06/17 03:30:39;;;;;;;8.45;4.35;;;;;;;13.68;100.00;100633.13;6195805;23;20014;-82
2023/06/17 03:33:04;;;;;;;7.18;3.80;;;;;;;13.62;100.00;100632.06;6220422;23;20066;-83
2023/06/17 03:35:30;;;;;;;9.50;4.20;;;;;;;13.67;100.00;100634.16;6195752;23;20008;-82
2023/06/17 03:37:56;;;;;;;10.30;4.55;;;;;;;13.56;100.00;100612.09;6195695;23;20046;-81
2023/06/17 03:40:21;;;;;;;7.50;3.88;;;;;;;13.75;100.00;100625.91;6247633;22;20005;-82
2023/06/17 03:42:47;;;;;;;11.43;4.82;;;;;;;13.80;100.00;100631.53;6245575;23;20499;-83
2023/06/17 03:45:13;;;;;;;9.07;4.45;;;;;;;13.73;100.00;100609.03;6195599;23;20011;-82
2023/06/17 03:47:38;;;;;;;7.20;4.22;;;;;;;13.84;100.00;100627.41;6247397;23;19996;-82
2023/06/17 03:50:06;;;;;;;10.93;4.97;;;;;;;13.78;100.00;100623.63;6195627;23;20012;-82
2023/06/17 03:52:31;;;;;;;8.57;4.13;;;;;;;13.70;100.00;100626.50;6246029;23;20363;-82
2023/06/17 03:54:57;;;;;;;7.68;3.67;;;;;;;13.50;100.00;100601.25;6195531;23;20476;-81
2023/06/17 03:57:23;;;;;;;7.38;4.13;;;;;;;13.40;100.00;100591.63;6245758;23;20004;-83
2023/06/17 03:59:49;;;;;;;7.65;3.95;;;;;;;13.29;100.00;100594.06;6195464;23;20012;-83
2023/06/17 04:02:14;;;;;;;8.00;4.15;;;;;;;13.17;100.00;100597.25;6195361;23;20035;-84
2023/06/17 04:04:40;;;;;;;8.82;4.13;;;;;;;13.08;100.00;100594.91;6220208;23;20008;-83
2023/06/17 04:07:06;;;;;;;6.57;3.58;;;;;;;12.98;100.00;100595.25;6194754;23;20081;-83
2023/06/17 04:09:32;;;;;;;8.98;4.38;;;;;;;12.88;100.00;100586.66;6195449;23;20107;-84
2023/06/17 04:11:57;;;;;;;4.10;2.70;;;;;;;12.84;100.00;100588.91;6195224;23;20012;-82
2023/06/17 04:14:23;;;;;;;6.45;3.50;;;;;;;12.89;100.00;100583.75;6195410;23;20008;-83
2023/06/17 04:16:51;;;;;;;9.80;4.47;;;;;;;12.85;100.00;100585.16;6195081;23;20015;-83
2023/06/17 04:19:17;;;;;;;11.73;4.45;;;;;;;12.75;100.00;100588.22;6220267;23;20011;-83
2023/06/17 04:21:44;;;;;;;11.43;4.45;;;;;;;12.72;100.00;100593.16;6195068;23;20008;-83
2023/06/17 04:24:10;;;;;;;11.00;4.45;;;;;;;12.69;100.00;100591.69;6245216;23;20004;-82
2023/06/17 04:26:36;;;;;;;6.82;3.63;;;;;;;12.68;100.00;100586.50;6245647;23;20451;-85
2023/06/17 04:29:01;;;;;;;7.68;3.88;;;;;;;12.65;100.00;100594.94;6195130;23;20075;-83
2023/06/17 04:31:27;;;;;;;9.23;4.28;;;;;;;12.71;100.00;100589.63;6194966;23;20004;-83
2023/06/17 04:33:53;;;;;;;5.90;3.72;;;;;;;12.70;100.00;100574.47;6195090;23;20039;-83
2023/06/17 04:36:20;;;;;;;6.97;3.50;;;;;;;12.75;100.00;100587.38;6245100;23;20071;-82
2023/06/17 04:38:49;;;;;;;7.63;3.85;;;;;;;12.66;100.00;100591.25;6220310;23;20015;-83
2023/06/17 04:41:16;;;;;;;7.68;3.88;;;;;;;12.61;100.00;100599.06;6195840;23;20015;-83
2023/06/17 04:43:48;;;;;;;8.27;3.67;;;;;;;12.36;100.00;100567.09;6195072;23;20027;-82
2023/06/17 04:46:17;;;;;;;6.85;4.15;;;;;;;12.51;100.00;100589.44;6221637;23;20106;-82
2023/06/17 04:48:46;;;;;;;7.82;3.70;;;;;;;12.51;100.00;100575.13;6194985;23;20000;-83
2023/06/17 04:51:12;;;;;;;7.95;3.83;;;;;;;12.63;100.00;100578.16;6245129;23;20004;-82
2023/06/17 04:53:39;;;;;;;7.75;3.72;;;;;;;12.68;100.00;100583.78;6220021;23;20332;-82
2023/06/17 04:56:06;;;;;;;8.90;4.13;;;;;;;12.68;100.00;100584.63;6194988;23;20138;-83
2023/06/17 04:58:35;;;;;;;7.82;3.72;;;;;;;12.68;100.00;100590.00;6244998;23;20428;-82
2023/06/17 05:01:00;;;;;;;6.43;3.17;;;;;;;12.66;100.00;100589.38;6194911;23;20087;-81
2023/06/17 05:03:26;;;;;;;7.88;3.72;;;;;;;12.61;100.00;100593.69;6194883;23;20004;-83
2023/06/17 05:05:53;;;;;;;8.57;3.47;;;;;;;12.63;100.00;100580.84;6194970;23;20003;-83
2023/06/17 05:08:19;;;;;;;10.77;3.90;;;;;;;12.64;100.00;100577.09;6245021;23;20004;-82
2023/06/17 05:10:44;;;;;;;8.65;4.00;;;;;;;12.73;100.00;100579.47;6219903;23;20019;-82
2023/06/17 05:13:10;;;;;;;7.80;3.65;;;;;;;12.77;100.00;100574.53;6194830;23;20008;-83
2023/06/17 05:15:36;;;;;;;9.98;5.00;;;;;;;12.74;100.00;100564.94;6219574;23;20000;-82
2023/06/17 05:18:01;;;;;;;7.95;4.00;;;;;;;12.75;100.00;100574.72;6219720;23;20008;-83
2023/06/17 05:20:27;;;;;;;8.88;4.28;;;;;;;12.81;100.00;100573.13;6245183;23;20079;-82
2023/06/17 05:22:53;;;;;;;8.25;4.20;;;;;;;12.87;100.00;100575.03;6194397;23;20028;-82
2023/06/17 05:25:18;;;;;;;8.75;3.95;;;;;;;12.92;100.00;100577.97;6194679;23;20011;-82
2023/06/17 05:27:44;;;;;;;8.65;3.88;;;;;;;12.97;100.00;100575.53;6194658;23;20008;-82
2023/06/17 05:30:10;;;;;;;10.15;4.55;;;;;;;13.07;100.00;100575.19;6194624;23;20012;-82
2023/06/17 05:32:36;;;;;;;8.50;3.58;;;;;;;13.11;100.00;100562.94;6194830;23;20372;-82
2023/06/17 05:35:02;;;;;;;9.15;4.25;;;;;;;13.20;100.00;100564.47;6194668;23;20008;-83
2023/06/17 05:37:27;;;;;;;11.07;4.75;;;;;;;13.31;100.00;100565.81;6194640;23;20011;-82
2023/06/17 05:39:53;;;;;;;5.63;3.65;;;;;;;13.38;100.00;100566.69;6219674;23;20023;-83
2023/06/17 05:42:19;;;;;;;8.35;4.10;;;;;;;13.40;100.00;100556.50;6194577;23;20008;-82
2023/06/17 05:44:45;;;;;;;10.27;4.38;;;;;;;13.51;100.00;100573.19;6194591;23;20111;-82
2023/06/17 05:47:10;;;;;;;8.35;4.50;;;;;;;13.60;100.00;100570.13;6194586;23;20008;-82
2023/06/17 05:49:36;;;;;;;8.32;3.70;;;;;;;13.62;100.00;100559.13;6194549;23;20009;-81
2023/06/17 05:52:03;;;;;;;7.45;4.60;;;;;;;13.67;100.00;100564.75;6219839;23;20433;-81
2023/06/17 05:54:28;;;;;;;7.47;4.05;;;;;;;13.67;100.00;100558.53;6219316;23;20015;-82
2023/06/17 05:56:54;;;;;;;7.75;3.90;;;;;;;13.72;100.00;100564.16;6219536;23;20071;-81
2023/06/17 05:59:19;;;;;;;8.77;4.43;;;;;;;13.72;100.00;100561.47;6219643;23;20333;-83
2023/06/17 06:01:46;;;;;;;8.88;4.05;;;;;;;13.79;100.00;100562.31;6194454;23;20405;-80
2023/06/17 06:04:11;;;;;;;9.85;4.50;;;;;;;13.91;100.00;100571.50;6244371;23;20008;-83
2023/06/17 06:06:37;;;;;;;8.15;4.03;;;;;;;13.97;100.00;100567.16;6194585;23;20019;-84
2023/06/17 06:09:03;;;;;;;9.25;4.43;;;;;;;14.04;100.00;100562.59;6219242;23;20035;-82
2023/06/17 06:11:28;;;;;;;7.78;4.38;;;;;;;14.13;100.00;100572.22;6194497;23;20045;-83
2023/06/17 06:13:54;;;;;;;8.63;4.45;;;;;;;14.18;100.00;100558.06;6194520;23;20038;-82
2023/06/17 06:16:19;;;;;;;7.05;3.88;;;;;;;14.24;100.00;100568.09;6194588;23;20344;-83
2023/06/17 06:18:45;;;;;;;8.38;4.13;;;;;;;14.33;100.00;100568.72;6219479;23;20011;-82
2023/06/17 06:21:11;;;;;;;11.38;4.28;;;;;;;14.38;100.00;100567.06;6194538;23;20008;-83
2023/06/17 06:23:37;;;;;;;9.40;4.88;;;;;;;14.50;100.00;100568.13;6193939;23;20004;-82
2023/06/17 06:26:02;;;;;;;7.97;4.80;;;;;;;14.61;100.00;100569.41;6194347;23;20008;-82
2023/06/17 06:28:28;;;;;;;8.20;3.90;;;;;;;14.78;100.00;100586.06;6194410;23;20043;-82
2023/06/17 06:30:54;;;;;;;8.50;4.07;;;;;;;14.91;100.00;100582.53;6219222;23;20000;-80
2023/06/17 06:33:21;;;;;;;8.63;4.50;;;;;;;14.99;100.00;100570.66;6194274;23;20004;-82
2023/06/17 06:35:47;;;;;;;6.95;4.32;;;;;;;15.15;100.00;100579.19;6194853;23;20008;-82
2023/06/17 06:38:13;;;;;;;8.95;4.47;;;;;;;15.25;100.00;100575.22;6194260;23;20007;-82
2023/06/17 06:40:40;;;;;;;7.72;4.00;;;;;;;15.38;100.00;100577.91;6219294;23;20020;-83
2023/06/17 06:43:06;;;;;;;9.90;4.35;;;;;;;15.41;100.00;100565.81;6196276;23;20058;-82
2023/06/17 06:45:31;;;;;;;8.45;4.25;;;;;;;15.48;100.00;100572.88;6221369;23;20008;-82
2023/06/17 06:47:57;;;;;;;10.05;4.75;;;;;;;15.55;100.00;100576.38;6196292;23;20328;-84
2023/06/17 06:50:24;;;;;;;8.18;4.30;;;;;;;15.57;100.00;100573.47;6221118;23;20100;-82
2023/06/17 06:52:50;;;;;;;7.35;4.10;;;;;;;15.59;100.00;100574.09;6221379;23;20000;-82
2023/06/17 06:55:16;;;;;;;6.63;4.18;;;;;;;15.58;100.00;100575.94;6221016;23;20004;-83
2023/06/17 06:57:42;;;;;;;6.70;3.72;;;;;;;15.60;100.00;100570.34;6220999;23;20034;-83
2023/06/17 07:00:11;;;;;;;8.40;3.85;;;;;;;15.52;100.00;100559.72;6195771;23;20097;-81
2023/06/17 07:02:38;;;;;;;10.20;4.82;;;;;;;15.67;100.00;100584.72;6247810;23;20013;-81
2023/06/17 07:05:04;;;;;;;8.27;4.90;;;;;;;15.72;100.00;100582.22;6170996;23;20012;-82
2023/06/17 07:07:30;;;;;;;6.20;3.60;;;;;;;15.86;100.00;100587.59;6195494;23;20027;-83
2023/06/17 07:09:56;;;;;;;7.07;4.45;;;;;;;16.02;100.00;100592.53;6195931;23;20388;-84
2023/06/17 07:12:22;;;;;;;7.65;3.90;;;;;;;16.21;100.00;100597.00;6195457;23;20004;-83
2023/06/17 07:14:48;;;;;;;8.02;4.25;;;;;;;16.45;100.00;100603.53;6170763;23;20004;-83
2023/06/17 07:17:13;;;;;;;6.90;4.25;;;;;;;16.82;100.00;100602.91;6170932;23;20004;-82
2023/06/17 07:19:39;;;;;;;7.70;4.30;;;;;;;17.26;100.00;100611.94;6170904;23;20008;-83
2023/06/17 07:22:06;;;;;;;9.63;4.07;;;;;;;17.44;100.00;100609.25;6170787;23;20008;-83
2023/06/17 07:24:32;;;;;;;9.55;3.65;;;;;;;17.97;100.00;100602.44;6196010;23;20008;-83
2023/06/17 07:26:58;;;;;;;6.30;3.80;;;;;;;18.48;100.00;100597.56;6170880;23;20012;-83
2023/06/17 07:29:23;;;;;;;8.57;4.35;;;;;;;18.91;100.00;100608.22;6170941;23;20008;-83
2023/06/17 07:31:49;;;;;;;6.95;3.90;;;;;;;19.35;100.00;100602.44;6170876;23;20031;-83
2023/06/17 07:34:14;;;;;;;9.95;4.82;;;;;;;20.37;100.00;100610.88;6170785;23;20008;-83
2023/06/17 07:36:40;;;;;;;6.68;4.07;;;;;;;21.56;100.00;100598.09;6170857;23;20012;-83
2023/06/17 07:39:06;;;;;;;7.60;4.45;;;;;;;22.57;96.66;100602.31;6170733;23;20004;-82
2023/06/17 07:41:32;;;;;;;6.90;3.83;;;;;;;23.18;89.48;100596.53;6170750;23;20365;-82
2023/06/17 07:43:57;;;;;;;6.85;4.15;;;;;;;23.66;84.59;100598.22;6170570;23;20305;-81
2023/06/17 07:46:23;;;;;;;5.90;3.65;;;;;;;23.97;81.10;100598.38;6170697;23;20020;-81
2023/06/17 07:48:49;;;;;;;8.90;3.47;;;;;;;24.33;79.04;100593.00;6220352;23;20010;-83
2023/06/17 07:51:14;;;;;;;7.03;3.85;;;;;;;24.54;78.25;100594.69;6170616;23;20443;-83
2023/06/17 07:53:40;;;;;;;5.65;4.00;;;;;;;24.64;75.19;100604.91;6170459;23;20310;-82
2023/06/17 07:56:05;;;;;;;4.60;2.97;;;;;;;24.77;71.02;100598.03;6220593;23;20016;-82
2023/06/17 07:58:31;;;;;;;8.50;4.35;;;;;;;25.29;70.33;100613.41;6170536;23;20452;-80
2023/06/17 08:00:57;;;;;;;6.40;4.10;;;;;;;26.36;68.85;100615.00;6175897;23;20106;-81
2023/06/17 08:03:22;;;;;;;9.30;5.45;;;;;;;27.86;60.51;100604.31;6245808;23;20004;-80
2023/06/17 08:05:48;;;;;;;7.32;3.97;;;;;;;28.69;54.05;100606.50;6195717;23;20417;-81
2023/06/17 08:08:14;;;;;;;6.22;4.25;;;;;;;28.93;51.41;100603.59;6195587;23;20008;-81
2023/06/17 08:10:39;;;;;;;7.72;3.95;;;;;;;27.32;50.44;100600.75;6195439;23;20015;-81
2023/06/17 08:13:05;;;;;;;5.18;3.55;;;;;;;25.20;56.00;100599.41;6220507;23;20015;-82
2023/06/17 08:15:31;;;;;;;5.75;3.88;;;;;;;23.84;63.54;100596.13;6195336;23;20000;-81
2023/06/17 08:17:57;;;;;;;7.30;3.97;;;;;;;22.93;67.43;100602.63;6220300;23;20356;-81
2023/06/17 08:20:23;;;;;;;6.22;3.30;;;;;;;22.25;72.17;100605.81;6195228;23;20008;-83
2023/06/17 08:22:49;;;;;;;7.10;4.00;;;;;;;21.94;74.37;100616.41;6194994;23;20370;-81
2023/06/17 08:25:17;;;;;;;6.03;3.67;;;;;;;21.95;76.58;100614.47;6220154;23;20055;-81
2023/06/17 08:27:47;;;;;;;8.50;3.75;;;;;;;22.20;75.99;100602.19;6195808;23;20008;-84
2023/06/17 08:30:13;;;;;;;6.25;3.95;;;;;;;22.35;75.67;100607.84;6196168;23;20325;-83
2023/06/17 08:32:39;;;;;;;6.57;3.80;;;;;;;23.43;72.69;100593.97;6196540;23;20011;-82
2023/06/17 08:35:06;;;;;;;5.78;3.60;;;;;;;23.75;68.89;100598.56;6205302;23;20463;-81
2023/06/17 08:37:35;;;;;;;5.45;3.47;;;;;;;23.93;68.50;100589.03;6199229;23;20000;-81
2023/06/17 08:40:05;;;;;;;6.68;3.92;;;;;;;23.70;65.87;100582.03;6196023;23;20001;-83
2023/06/17 08:42:31;;;;;;;6.70;3.72;;;;;;;23.35;67.11;100585.41;6171505;23;20380;-84
2023/06/17 08:45:00;;;;;;;6.95;3.72;;;;;;;23.18;70.78;100585.56;6244196;23;20012;-82
2023/06/17 08:47:26;;;;;;;5.68;3.97;;;;;;;23.34;69.22;100572.78;6194382;23;20019;-83
2023/06/17 08:49:55;;;;;;;8.35;5.80;;;;;;;23.42;67.35;100569.56;6218524;23;20015;-83
2023/06/17 08:52:22;;;;;;;8.75;5.22;;;;;;;23.29;67.28;100557.13;6220237;23;20015;-83
2023/06/17 08:54:48;;;;;;;7.35;4.32;;;;;;;23.41;65.63;100565.97;6195052;23;20004;-83
2023/06/17 08:57:14;;;;;;;8.73;4.65;;;;;;;23.45;64.66;100563.53;6220097;23;20425;-83
2023/06/17 08:59:40;;;;;;;11.18;4.30;;;;;;;24.55;59.60;100579.84;6244978;23;20492;-83
2023/06/17 09:02:06;;;;;;;7.70;4.30;;;;;;;26.52;53.81;100563.38;6219779;23;20046;-83
2023/06/17 09:04:32;;;;;;;6.47;4.65;;;;;;;29.72;45.67;100579.78;6246161;22;20365;-83
2023/06/17 09:06:58;;;;;;;5.90;3.83;;;;;;;30.42;41.83;100575.75;6194754;23;20015;-83
2023/06/17 09:09:23;;;;;;;8.35;4.63;;;;;;;29.94;41.33;100563.19;6245348;23;20035;-82
2023/06/17 09:11:50;;;;;;;6.50;4.60;;;;;;;30.11;40.19;100583.91;6244878;23;20005;-83
2023/06/17 09:14:22;;;;;;;6.03;4.20;;;;;;;31.07;38.79;100569.69;6194633;23;20337;-83
2023/06/17 09:16:49;;;;;;;5.85;4.68;;;;;;;32.20;37.17;100566.47;6220359;23;20042;-82
2023/06/17 09:19:15;;;;;;;6.70;4.68;;;;;;;32.81;35.49;100570.09;6219914;23;20005;-82
2023/06/17 09:21:41;;;;;;;6.25;4.18;;;;;;;33.01;34.84;100573.34;6219792;23;20061;-82
2023/06/17 09:24:10;;;;;;;6.30;4.65;;;;;;;32.71;33.99;100566.81;6219865;23;20027;-83
2023/06/17 09:26:41;;;;;;;6.85;4.50;;;;;;;32.62;34.90;100566.84;6244795;23;20004;-81
2023/06/17 09:29:09;;;;;;;7.38;4.95;;;;;;;30.23;37.28;100532.34;6219906;23;20087;-83
2023/06/17 09:31:51;;;;;;;5.53;4.15;;;;;;;30.09;37.81;100542.66;6244708;23;20003;-82
2023/06/17 09:34:20;;;;;;;6.32;4.93;;;;;;;30.43;38.49;100541.31;6245076;23;20000;-82
2023/06/17 09:36:51;;;;;;;6.30;4.63;;;;;;;31.86;36.24;100547.75;6170447;23;20015;-84
2023/06/17 09:39:18;;;;;;;5.83;4.53;;;;;;;32.89;34.70;100531.41;6194802;23;20039;-84
2023/06/17 09:41:44;;;;;;;5.75;4.45;;;;;;;32.70;33.82;100535.38;6219837;23;20002;-85
2023/06/17 09:44:13;;;;;;;7.22;4.60;;;;;;;30.62;37.27;100538.38;6244651;23;20059;-84
2023/06/17 09:46:46;;;;;;;6.50;4.78;;;;;;;28.68;40.88;100537.63;6244986;23;20000;-85
2023/06/17 09:49:15;;;;;;;6.95;4.15;;;;;;;28.15;41.70;100522.09;6245022;23;20005;-84
2023/06/17 09:51:42;;;;;;;6.60;3.97;;;;;;;26.69;45.32;100538.94;6220261;23;20054;-85
2023/06/17 09:54:09;;;;;;;6.85;4.70;;;;;;;26.19;47.61;100540.94;6169785;23;20014;-83
2023/06/17 09:56:36;;;;;;;7.75;4.57;;;;;;;27.49;45.53;100523.78;6195058;23;20015;-83
2023/06/17 09:59:08;;;;;;;6.57;3.95;;;;;;;27.37;45.94;100526.97;6245036;23;20015;-84
2023/06/17 10:01:39;;;;;;;6.65;4.20;;;;;;;29.73;42.22;100517.66;6220626;23;20034;-82
2023/06/17 10:04:07;;;;;;;6.03;4.18;;;;;;;29.17;40.96;100527.09;6220007;23;20011;-82
2023/06/17 10:06:37;;;;;;;8.15;4.45;;;;;;;28.66;43.01;100520.53;6244577;23;20004;-84
2023/06/17 10:09:08;;;;;;;6.57;3.92;;;;;;;28.74;41.65;100527.28;6244901;23;19997;-82
2023/06/17 10:11:35;;;;;;;6.47;4.68;;;;;;;28.67;42.70;100519.38;6244951;23;20004;-83
2023/06/17 10:14:20;;;;;;;6.47;4.20;;;;;;;28.84;41.46;100524.34;6244858;23;20123;-85
2023/06/17 10:16:48;;;;;;;10.13;4.72;;;;;;;28.62;42.67;100520.28;6245734;23;20333;-85
2023/06/17 10:19:17;;;;;;;7.68;4.82;;;;;;;28.86;41.63;100517.38;6221484;23;20106;-85
2023/06/17 10:21:47;;;;;;;9.93;4.50;;;;;;;28.00;42.80;100516.81;6196708;23;20004;-82
2023/06/17 10:24:13;;;;;;;6.53;4.38;;;;;;;26.99;45.99;100498.38;6196558;23;20063;-82
2023/06/17 10:26:39;;;;;;;9.38;4.85;;;;;;;26.53;47.47;100507.09;6246990;23;20368;-83
2023/06/17 10:29:10;;;;;;;7.28;4.75;;;;;;;26.32;48.63;100506.41;6196426;23;20011;-85
2023/06/17 10:31:39;;;;;;;8.35;4.57;;;;;;;26.25;49.58;100501.22;6246895;23;20066;-85
2023/06/17 10:34:05;;;;;;;5.57;3.63;;;;;;;26.12;49.42;100488.09;6196508;23;20004;-82
2023/06/17 10:36:37;;;;;;;6.45;3.70;;;;;;;26.39;49.13;100495.88;6246304;23;20421;-82
2023/06/17 10:39:05;;;;;;;7.57;3.77;;;;;;;27.59;47.49;100486.94;6196884;23;20447;-84
2023/06/17 10:41:40;;;;;;;8.02;4.65;;;;;;;29.64;43.46;100489.00;6246293;23;20000;-82
2023/06/17 10:44:26;;;;;;;8.27;3.55;;;;;;;29.31;42.19;100489.97;6221233;23;20012;-83
2023/06/17 10:46:55;;;;;;;6.47;3.78;;;;;;;29.90;42.30;100486.50;6226371;23;20044;-82
2023/06/17 10:49:21;;;;;;;6.47;3.80;;;;;;;28.60;42.55;100492.09;6221611;23;20089;-84
2023/06/17 10:51:52;;;;;;;8.82;4.50;;;;;;;27.51;45.68;100480.13;6196134;23;20000;-83
2023/06/17 10:54:28;;;;;;;5.18;3.70;;;;;;;30.50;41.09;100486.22;6221117;23;20448;-82
2023/06/17 10:56:54;;;;;;;6.88;3.67;;;;;;;29.26;41.63;100480.94;6246406;23;20083;-82
2023/06/17 10:59:25;;;;;;;5.45;4.25;;;;;;;30.66;40.40;100484.66;6246036;23;20397;-81
2023/06/17 11:01:52;;;;;;;6.40;4.10;;;;;;;31.41;37.75;100447.94;6245979;23;20008;-84
2023/06/17 11:04:18;;;;;;;5.20;3.97;;;;;;;31.64;36.92;100471.69;6220897;23;20004;-84
2023/06/17 11:06:46;;;;;;;6.97;3.90;;;;;;;31.27;37.53;100467.50;6195838;23;20003;-83
2023/06/17 11:09:12;;;;;;;5.40;3.67;;;;;;;31.72;37.25;100470.06;6220760;23;20000;-84
2023/06/17 11:11:37;;;;;;;4.28;3.13;;;;;;;32.60;36.02;100463.34;6246186;23;20015;-84
2023/06/17 11:14:03;;;;;;;5.88;3.63;;;;;;;33.49;34.96;100463.47;6220918;23;20008;-84
2023/06/17 11:16:29;;;;;;;5.30;3.55;;;;;;;34.14;33.31;100450.88;6220792;23;20334;-81
2023/06/17 11:18:55;;;;;;;6.40;2.97;;;;;;;33.35;34.47;100465.72;6220738;23;20004;-92